createdAt,value
2018-04-29T06:20:20.989Z,4.20
2018-04-29T06:21:21.590Z,4.40
2018-04-29T06:22:22.186Z,4.20
2018-04-29T06:23:22.825Z,4.00
2018-04-29T06:24:23.418Z,3.90
2018-04-29T06:25:24.037Z,3.60
2018-04-29T06:27:24.906Z,3.80
2018-04-29T06:30:41.050Z,2.80
2018-04-29T06:31:41.635Z,3.40
2018-04-29T06:32:42.227Z,3.70
2018-04-29T06:33:42.847Z,3.60
2018-04-29T06:34:43.442Z,4.30
2018-04-29T06:35:44.018Z,3.60
2018-04-29T06:36:44.641Z,3.60
2018-04-29T06:37:45.252Z,4.10
2018-04-29T06:38:45.885Z,3.40
2018-04-29T06:39:46.566Z,3.20
2018-04-29T06:40:47.213Z,3.60
2018-04-29T06:41:47.840Z,3.50
2018-04-29T06:42:48.473Z,3.40
2018-04-29T06:44:40.758Z,3.40
2018-04-29T06:46:10.980Z,3.10
2018-04-29T06:47:58.745Z,3.10
2018-04-29T06:48:59.354Z,3.10
2018-04-29T06:50:06.100Z,2.50
2018-04-29T06:51:37.457Z,2.80
2018-04-29T06:54:12.730Z,2.60
2018-04-29T06:55:39.043Z,2.70
2018-04-29T06:56:02.909Z,2.70
2018-04-29T07:03:22.821Z,2.20
2018-04-29T07:10:44.594Z,2.60
2018-04-29T07:11:23.210Z,0.00
2018-04-29T07:14:59.523Z,2.70
2018-04-29T07:16:00.145Z,2.60
2018-04-29T07:17:05.677Z,2.60
2018-04-29T07:18:06.237Z,2.50
2018-04-29T07:19:13.423Z,2.90
2018-04-29T07:21:26.585Z,2.90
2018-04-29T07:22:30.857Z,2.70
2018-04-29T07:24:31.691Z,2.70
2018-04-29T07:25:32.283Z,2.80
2018-04-29T07:26:32.884Z,2.40
2018-04-29T07:27:33.489Z,2.70
2018-04-29T07:28:34.116Z,2.80
2018-04-29T07:29:34.716Z,3.20
2018-04-29T07:30:35.291Z,2.80
2018-04-29T07:31:35.913Z,3.00
2018-04-29T07:32:36.487Z,3.20
2018-04-29T07:33:37.103Z,2.60
2018-04-29T07:34:37.675Z,2.70
2018-04-29T07:35:38.264Z,2.70
2018-04-29T07:36:38.830Z,2.60
2018-04-29T07:37:39.522Z,3.00
2018-04-29T07:38:40.108Z,2.50
2018-04-29T07:39:40.714Z,2.50
2018-04-29T07:40:41.270Z,2.60
2018-04-29T07:41:41.828Z,2.30
2018-04-29T07:42:42.433Z,2.50
2018-04-29T07:50:56.653Z,0.00
2018-04-29T07:51:57.246Z,2.30
2018-04-29T07:52:57.846Z,2.30
2018-04-29T07:53:58.466Z,2.50
2018-04-29T08:00:35.130Z,0.00
2018-04-29T08:01:35.773Z,2.20
2018-04-29T08:02:36.350Z,2.40
2018-04-29T08:03:36.952Z,2.50
2018-04-29T08:09:28.515Z,2.50
2018-04-29T08:10:29.163Z,2.50
2018-04-29T08:11:29.764Z,2.40
2018-04-29T08:12:30.338Z,2.70
2018-04-29T08:13:30.949Z,2.30
2018-04-29T08:20:14.903Z,2.40
2018-04-29T08:22:15.767Z,2.40
2018-04-29T08:26:15.990Z,2.50
2018-04-29T08:27:16.585Z,2.30
2018-04-29T08:28:17.163Z,2.60
2018-04-29T08:29:17.809Z,2.60
2018-04-29T08:30:18.464Z,2.40
2018-04-29T08:32:19.337Z,2.40
2018-04-29T08:33:19.977Z,2.20
2018-04-29T08:34:20.550Z,2.60
2018-04-29T08:35:21.137Z,2.40
2018-04-29T08:36:21.705Z,2.60
2018-04-29T08:38:22.557Z,2.40
2018-04-29T08:40:23.434Z,2.30
2018-04-29T08:41:24.034Z,2.30
2018-04-29T08:43:24.899Z,2.80
2018-04-29T08:44:25.493Z,2.40
2018-04-29T08:45:26.082Z,2.40
2018-04-29T08:46:26.783Z,2.40
2018-04-29T08:47:27.366Z,2.60
2018-04-29T08:48:27.971Z,2.50
2018-04-29T08:49:28.621Z,2.40
2018-04-29T08:50:29.297Z,2.60
2018-04-29T08:51:29.896Z,2.30
2018-04-29T08:52:30.529Z,2.70
2018-04-29T08:53:31.140Z,2.70
2018-04-29T08:54:31.724Z,2.60
2018-04-29T08:55:32.416Z,2.50
2018-04-29T08:56:33.161Z,2.40
2018-04-29T08:57:40.322Z,2.70
2018-04-29T08:59:41.161Z,2.70
2018-04-29T09:01:42.172Z,2.40
2018-04-29T09:02:42.712Z,2.70
2018-04-29T09:03:50.873Z,2.60
2018-04-29T09:04:52.465Z,2.50
2018-04-29T09:05:53.184Z,2.70
2018-04-29T09:06:53.763Z,2.80
2018-04-29T09:07:54.329Z,2.80
2018-04-29T09:08:54.938Z,2.50
2018-04-29T09:09:55.515Z,2.80
2018-04-29T09:10:56.152Z,2.50
2018-04-29T09:11:56.735Z,2.40
2018-04-29T09:13:04.522Z,3.00
2018-04-29T09:15:05.412Z,3.00
2018-04-29T09:16:13.014Z,2.50
2018-04-29T09:17:14.643Z,2.70
2018-04-29T09:18:15.265Z,2.50
2018-04-29T09:19:15.848Z,2.50
2018-04-29T09:21:17.904Z,2.70
2018-04-29T09:22:18.531Z,2.40
2018-04-29T09:23:19.226Z,2.80
2018-04-29T09:24:19.835Z,2.50
2018-04-29T09:25:20.404Z,2.70
2018-04-29T09:26:21.022Z,2.80
2018-04-29T09:28:21.902Z,2.80
2018-04-29T09:29:22.547Z,2.40
2018-04-29T09:30:23.183Z,2.80
2018-04-29T09:31:23.780Z,2.50
2018-04-29T09:32:24.367Z,2.50
2018-04-29T09:33:24.941Z,2.60
2018-04-29T09:34:25.592Z,2.80
2018-04-29T09:35:26.190Z,2.80
2018-04-29T09:36:26.819Z,3.00
2018-04-29T09:37:27.493Z,2.90
2018-04-29T09:38:34.953Z,2.80
2018-04-29T09:39:35.610Z,2.30
2018-04-29T09:40:36.173Z,2.60
2018-04-29T09:41:36.765Z,2.40
2018-04-29T09:42:37.382Z,2.40
2018-04-29T09:43:38.062Z,2.70
2018-04-29T09:44:39.528Z,2.40
2018-04-29T09:45:40.158Z,2.80
2018-04-29T09:46:40.753Z,2.50
2018-04-29T09:48:41.643Z,2.90
2018-04-29T09:49:42.259Z,2.40
2018-04-29T09:50:42.879Z,2.50
2018-04-29T09:51:43.535Z,2.40
2018-04-29T09:52:44.117Z,2.60
2018-04-29T09:54:45.010Z,2.50
2018-04-29T09:55:45.716Z,2.30
2018-04-29T09:56:46.327Z,2.70
2018-04-29T09:57:46.978Z,2.50
2018-04-29T09:58:47.569Z,2.40
2018-04-29T10:00:48.412Z,2.70
2018-04-29T10:01:49.017Z,2.80
2018-04-29T10:02:49.640Z,2.50
2018-04-29T10:03:50.234Z,2.50
2018-04-29T10:04:50.812Z,2.70
2018-04-29T10:06:51.681Z,3.00
2018-04-29T10:07:52.315Z,2.80
2018-04-29T10:08:52.925Z,2.50
2018-04-29T10:09:53.588Z,2.60
2018-04-29T10:10:54.173Z,2.80
2018-04-29T10:11:54.787Z,2.90
2018-04-29T10:12:55.392Z,2.50
2018-04-29T10:13:55.984Z,2.70
2018-04-29T10:14:56.578Z,2.60
2018-04-29T10:15:57.155Z,2.60
2018-04-29T10:16:57.987Z,2.50
2018-04-29T10:17:58.695Z,2.90
2018-04-29T10:18:59.348Z,2.70
2018-04-29T10:20:00.057Z,2.80
2018-04-29T10:21:00.670Z,2.90
2018-04-29T10:22:01.297Z,3.20
2018-04-29T10:23:01.885Z,2.70
2018-04-29T10:25:02.780Z,3.00
2018-04-29T10:26:03.377Z,3.10
2018-04-29T10:27:03.994Z,2.70
2018-04-29T10:28:04.601Z,2.70
2018-04-29T10:29:05.189Z,2.60
2018-04-29T10:30:05.775Z,2.90
2018-04-29T10:31:06.360Z,2.80
2018-04-29T10:32:07.006Z,4.00
2018-04-29T10:33:07.657Z,2.90
2018-04-29T10:34:08.279Z,2.70
2018-04-29T10:35:08.856Z,2.90
2018-04-29T10:36:09.449Z,3.00
2018-04-29T10:37:10.062Z,2.80
2018-04-29T10:38:10.629Z,2.70
2018-04-29T10:39:11.228Z,2.90
2018-04-29T10:40:11.810Z,2.90
2018-04-29T10:41:12.398Z,3.00
2018-04-29T10:42:13.001Z,3.00
2018-04-29T10:43:13.611Z,2.70
2018-04-29T10:44:14.227Z,3.00
2018-04-29T10:45:14.844Z,2.80
2018-04-29T10:46:15.475Z,2.50
2018-04-29T10:47:16.086Z,2.70
2018-04-29T10:48:16.699Z,3.00
2018-04-29T10:49:17.322Z,3.00
2018-04-29T10:50:17.936Z,2.90
2018-04-29T10:51:18.531Z,3.00
2018-04-29T10:52:19.141Z,2.80
2018-04-29T10:53:19.750Z,2.80
2018-04-29T10:54:20.324Z,2.80
2018-04-29T10:55:20.921Z,2.80
2018-04-29T10:57:21.805Z,2.50
2018-04-29T10:58:23.055Z,2.70
2018-04-29T10:59:23.682Z,2.80
2018-04-29T11:00:24.303Z,3.00
2018-04-29T11:01:24.915Z,2.90
2018-04-29T11:02:25.538Z,2.80
2018-04-29T11:03:26.139Z,2.80
2018-04-29T11:04:26.738Z,2.70
2018-04-29T11:05:27.347Z,3.10
2018-04-29T11:06:27.942Z,3.10
2018-04-29T11:07:28.529Z,2.70
2018-04-29T11:09:29.445Z,3.00
2018-04-29T11:10:30.074Z,2.90
2018-04-29T11:11:30.683Z,2.90
2018-04-29T11:12:31.275Z,2.80
2018-04-29T11:13:31.914Z,2.70
2018-04-29T11:14:32.506Z,2.90
2018-04-29T11:15:33.104Z,2.70
2018-04-29T11:16:33.719Z,2.90
2018-04-29T11:17:34.309Z,3.10
2018-04-29T11:18:34.910Z,3.10
2018-04-29T11:20:35.768Z,3.00
2018-04-29T11:22:36.668Z,3.10
2018-04-29T11:23:37.272Z,2.80
2018-04-29T11:24:37.871Z,2.90
2018-04-29T11:25:38.737Z,2.80
2018-04-29T11:26:39.381Z,2.60
2018-04-29T11:27:40.025Z,2.80
2018-04-29T11:28:40.678Z,3.10
2018-04-29T11:29:41.440Z,3.20
2018-04-29T11:30:42.126Z,2.50
2018-04-29T11:31:42.759Z,3.00
2018-04-29T11:32:43.379Z,3.00
2018-04-29T11:33:44.084Z,3.00
2018-04-29T11:34:44.686Z,3.00
2018-04-29T11:35:45.411Z,3.10
2018-04-29T11:36:46.013Z,3.10
2018-04-29T11:37:46.619Z,3.20
2018-04-29T11:38:47.245Z,2.90
2018-04-29T11:40:48.106Z,3.60
2018-04-29T11:41:48.713Z,3.30
2018-04-29T11:42:49.344Z,3.60
2018-04-29T11:43:49.945Z,3.60
2018-04-29T11:44:50.568Z,2.90
2018-04-29T11:45:51.238Z,2.80
2018-04-29T11:46:51.830Z,3.00
2018-04-29T11:47:52.509Z,2.90
2018-04-29T11:48:53.106Z,3.10
2018-04-29T11:49:53.720Z,2.90
2018-04-29T11:50:54.339Z,2.80
2018-04-29T11:51:54.989Z,3.00
2018-04-29T11:52:55.639Z,3.70
2018-04-29T11:53:56.231Z,2.90
2018-04-29T11:54:56.878Z,3.00
2018-04-29T11:55:57.468Z,3.10
2018-04-29T11:57:58.328Z,3.00
2018-04-29T11:58:59.005Z,2.90
2018-04-29T11:59:59.593Z,2.90
2018-04-29T12:01:00.270Z,2.70
2018-04-29T12:02:00.989Z,3.20
2018-04-29T12:03:01.577Z,2.80
2018-04-29T12:05:02.440Z,2.90
2018-04-29T12:06:03.025Z,2.70
2018-04-29T12:07:03.675Z,2.80
2018-04-29T12:08:04.313Z,2.80
2018-04-29T12:09:04.919Z,3.00
2018-04-29T12:11:05.797Z,2.90
2018-04-29T12:12:06.402Z,2.90
2018-04-29T12:13:07.144Z,3.00
2018-04-29T12:14:07.734Z,2.80
2018-04-29T12:15:08.329Z,3.00
2018-04-29T12:16:08.982Z,2.90
2018-04-29T12:17:09.598Z,2.90
2018-04-29T12:18:10.261Z,2.80
2018-04-29T12:19:10.896Z,2.70
2018-04-29T12:20:11.559Z,3.00
2018-04-29T12:21:12.153Z,3.00
2018-04-29T12:22:12.735Z,3.00
2018-04-29T12:23:13.350Z,2.90
2018-04-29T12:24:14.017Z,2.90
2018-04-29T12:25:15.307Z,3.00
2018-04-29T12:26:15.993Z,3.10
2018-04-29T12:27:16.716Z,2.80
2018-04-29T12:29:17.679Z,3.10
2018-04-29T12:30:18.268Z,2.70
2018-04-29T12:31:18.926Z,3.10
2018-04-29T12:32:19.597Z,3.10
2018-04-29T12:33:20.206Z,3.20
2018-04-29T12:34:20.844Z,3.00
2018-04-29T12:35:21.432Z,3.20
2018-04-29T12:36:22.069Z,3.80
2018-04-29T12:37:22.690Z,3.10
2018-04-29T12:38:23.295Z,3.00
2018-04-29T12:40:24.199Z,3.00
2018-04-29T12:41:24.896Z,3.20
2018-04-29T12:42:25.531Z,3.20
2018-04-29T12:43:26.156Z,3.00
2018-04-29T12:44:26.830Z,2.90
2018-04-29T12:45:27.491Z,3.30
2018-04-29T12:46:28.112Z,3.00
2018-04-29T12:48:28.978Z,3.40
2018-04-29T12:49:29.569Z,3.30
2018-04-29T12:51:30.454Z,3.40
2018-04-29T12:52:31.109Z,3.10
2018-04-29T12:53:31.775Z,3.00
2018-04-29T12:54:32.355Z,3.10
2018-04-29T12:55:32.948Z,3.00
2018-04-29T12:56:33.579Z,3.10
2018-04-29T12:57:34.159Z,3.30
2018-04-29T12:58:34.806Z,2.90
2018-04-29T12:59:35.419Z,2.80
2018-04-29T13:00:36.023Z,3.00
2018-04-29T13:01:36.612Z,3.10
2018-04-29T13:02:37.312Z,2.80
2018-04-29T13:03:38.028Z,3.00
2018-04-29T13:05:38.991Z,3.10
2018-04-29T13:06:39.595Z,2.90
2018-04-29T13:07:40.245Z,3.00
2018-04-29T13:08:41.630Z,3.20
2018-04-29T13:09:42.230Z,2.90
2018-04-29T13:10:42.882Z,2.90
2018-04-29T13:11:43.511Z,3.00
2018-04-29T13:12:44.147Z,3.10
2018-04-29T13:13:44.784Z,3.10
2018-04-29T13:14:45.409Z,3.20
2018-04-29T13:15:46.063Z,3.30
2018-04-29T13:16:46.697Z,2.80
2018-04-29T13:17:47.324Z,3.20
2018-04-29T13:18:47.950Z,3.00
2018-04-29T13:19:48.545Z,3.10
2018-04-29T13:20:49.147Z,3.20
2018-04-29T13:21:49.841Z,3.00
2018-04-29T13:22:50.433Z,2.90
2018-04-29T13:23:51.069Z,3.10
2018-04-29T13:25:51.970Z,2.70
2018-04-29T13:26:52.565Z,2.80
2018-04-29T13:27:53.168Z,3.00
2018-04-29T13:28:54.465Z,3.00
2018-04-29T13:29:55.086Z,3.00
2018-04-29T13:30:55.737Z,3.30
2018-04-29T13:31:56.344Z,3.10
2018-04-29T13:33:57.302Z,2.90
2018-04-29T13:34:57.939Z,2.90
2018-04-29T13:35:58.525Z,2.90
2018-04-29T13:36:59.112Z,3.20
2018-04-29T13:38:00.339Z,3.50
2018-04-29T13:39:02.813Z,3.40
2018-04-29T13:40:03.419Z,3.20
2018-04-29T13:41:04.026Z,3.10
2018-04-29T13:42:04.719Z,3.50
2018-04-29T13:43:05.318Z,3.40
2018-04-29T13:44:05.918Z,3.40
2018-04-29T13:45:07.093Z,2.80
2018-04-29T13:46:07.731Z,2.90
2018-04-29T13:47:08.343Z,2.70
2018-04-29T13:48:09.044Z,2.80
2018-04-29T13:49:09.686Z,3.10
2018-04-29T13:50:10.970Z,2.90
2018-04-29T13:51:11.568Z,3.00
2018-04-29T13:52:12.236Z,3.10
2018-04-29T13:53:12.837Z,3.20
2018-04-29T13:54:13.499Z,2.90
2018-04-29T13:55:14.165Z,3.40
2018-04-29T13:56:14.865Z,3.00
2018-04-29T13:57:15.447Z,3.10
2018-04-29T13:58:16.071Z,3.20
2018-04-29T13:59:16.675Z,3.00
2018-04-29T14:00:17.381Z,3.30
2018-04-29T14:01:18.058Z,3.00
2018-04-29T14:02:18.659Z,2.90
2018-04-29T14:03:19.318Z,3.40
2018-04-29T14:04:19.979Z,3.20
2018-04-29T14:05:20.590Z,3.00
2018-04-29T14:06:21.185Z,2.90
2018-04-29T14:07:25.193Z,3.10
2018-04-29T14:08:25.866Z,3.10
2018-04-29T14:09:26.516Z,2.90
2018-04-29T14:10:27.226Z,3.30
2018-04-29T14:12:28.050Z,3.10
2018-04-29T14:13:28.708Z,2.80
2018-04-29T14:14:29.325Z,2.70
2018-04-29T14:15:29.922Z,2.80
2018-04-29T14:16:30.537Z,2.60
2018-04-29T14:17:31.178Z,2.70
2018-04-29T14:18:32.274Z,2.60
2018-04-29T14:19:33.522Z,2.90
2018-04-29T14:20:34.135Z,3.20
2018-04-29T14:21:34.741Z,3.00
2018-04-29T14:22:35.326Z,3.10
2018-04-29T14:23:36.064Z,3.00
2018-04-29T14:24:36.738Z,4.00
2018-04-29T14:25:37.406Z,4.30
2018-04-29T14:27:38.306Z,3.70
2018-04-29T14:28:38.934Z,4.30
2018-04-29T14:29:39.553Z,3.80
2018-04-29T14:30:40.192Z,4.30
2018-04-29T14:31:40.786Z,4.10
2018-04-29T14:32:41.428Z,4.10
2018-04-29T14:33:42.040Z,4.70
2018-04-29T14:34:42.649Z,5.40
2018-04-29T14:36:43.539Z,3.50
2018-04-29T14:37:44.211Z,3.50
2018-04-29T14:38:44.812Z,3.10
2018-04-29T14:39:45.445Z,2.90
2018-04-29T14:40:46.065Z,2.90
2018-04-29T14:41:46.665Z,2.80
2018-04-29T14:42:47.274Z,2.80
2018-04-29T14:43:47.852Z,3.10
2018-04-29T14:44:48.460Z,3.20
2018-04-29T14:45:49.053Z,3.10
2018-04-29T14:46:49.638Z,2.90
2018-04-29T14:47:50.207Z,3.20
2018-04-29T14:48:50.812Z,3.20
2018-04-29T14:49:51.428Z,3.40
2018-04-29T14:51:52.290Z,3.30
2018-04-29T14:52:52.896Z,3.00
2018-04-29T14:53:53.494Z,3.10
2018-04-29T14:54:54.114Z,3.40
2018-04-29T14:55:54.749Z,3.70
2018-04-29T14:56:55.374Z,3.10
2018-04-29T14:57:55.963Z,3.30
2018-04-29T14:58:56.572Z,3.30
2018-04-29T14:59:57.202Z,3.10
2018-04-29T15:00:57.787Z,3.10
2018-04-29T15:01:58.427Z,3.10
2018-04-29T15:02:59.061Z,3.10
2018-04-29T15:04:59.974Z,2.90
2018-04-29T15:06:01.291Z,3.10
2018-04-29T15:07:01.913Z,2.80
2018-04-29T15:08:02.521Z,3.20
2018-04-29T15:09:03.109Z,3.20
2018-04-29T15:11:03.979Z,3.20
2018-04-29T15:13:04.881Z,2.90
2018-04-29T15:14:05.464Z,3.10
2018-04-29T15:15:06.090Z,3.10
2018-04-29T15:16:06.806Z,3.20
2018-04-29T15:17:07.393Z,3.00
2018-04-29T15:18:07.983Z,3.10
2018-04-29T15:19:08.566Z,3.30
2018-04-29T15:20:09.768Z,3.00
2018-04-29T15:21:10.379Z,2.80
2018-04-29T15:22:10.945Z,3.30
2018-04-29T15:23:11.554Z,2.90
2018-04-29T15:24:12.168Z,3.20
2018-04-29T15:25:12.780Z,3.30
2018-04-29T15:26:13.383Z,3.80
2018-04-29T15:28:14.240Z,3.40
2018-04-29T15:29:14.827Z,3.50
2018-04-29T15:30:15.429Z,3.20
2018-04-29T15:31:16.036Z,3.90
2018-04-29T15:32:16.614Z,3.80
2018-04-29T15:33:17.204Z,3.70
2018-04-29T15:34:17.786Z,3.30
2018-04-29T15:36:18.652Z,3.30
2018-04-29T15:37:19.266Z,3.00
2018-04-29T15:38:19.868Z,2.90
2018-04-29T15:40:20.735Z,3.70
2018-04-29T15:41:21.326Z,3.10
2018-04-29T15:42:21.919Z,3.40
2018-04-29T15:43:22.520Z,3.10
2018-04-29T15:44:23.176Z,3.40
2018-04-29T15:45:23.773Z,3.20
2018-04-29T15:46:24.389Z,3.90
2018-04-29T15:47:24.971Z,3.30
2018-04-29T15:48:25.548Z,3.40
2018-04-29T15:49:26.137Z,3.50
2018-04-29T15:51:27.074Z,3.40
2018-04-29T15:52:27.759Z,3.20
2018-04-29T15:53:28.398Z,3.50
2018-04-29T15:54:28.996Z,3.30
2018-04-29T15:55:29.599Z,3.50
2018-04-29T15:57:30.554Z,3.50
2018-04-29T15:58:31.228Z,4.00
2018-04-29T15:59:31.807Z,8.20
2018-04-29T16:00:32.437Z,3.60
2018-04-29T16:01:33.039Z,3.30
2018-04-29T16:02:33.663Z,3.20
2018-04-29T16:03:34.247Z,3.30
2018-04-29T16:05:35.140Z,3.60
2018-04-29T16:06:35.748Z,4.10
2018-04-29T16:07:36.321Z,4.40
2018-04-29T16:08:36.938Z,4.20
2018-04-29T16:10:37.846Z,4.10
2018-04-29T16:12:38.734Z,3.90
2018-04-29T16:13:39.355Z,3.50
2018-04-29T16:15:40.200Z,3.40
2018-04-29T16:16:40.818Z,3.50
2018-04-29T16:18:41.748Z,8.90
2018-04-29T16:19:42.377Z,5.00
2018-04-29T16:20:42.979Z,12.80
2018-04-29T16:21:43.633Z,10.80
2018-04-29T16:23:44.525Z,4.70
2018-04-29T16:24:45.138Z,4.80
2018-04-29T16:25:45.737Z,3.80
2018-04-29T16:27:46.620Z,3.30
2018-04-29T16:28:47.254Z,3.30
2018-04-29T16:29:47.859Z,3.20
2018-04-29T16:30:48.498Z,3.50
2018-04-29T16:31:49.091Z,3.70
2018-04-29T16:32:49.662Z,3.30
2018-04-29T16:33:50.255Z,3.30
2018-04-29T16:35:51.099Z,3.20
2018-04-29T16:36:51.691Z,3.20
2018-04-29T16:37:52.312Z,3.60
2018-04-29T16:38:53.002Z,3.40
2018-04-29T16:39:53.642Z,3.20
2018-04-29T16:41:54.551Z,3.30
2018-04-29T16:42:55.145Z,3.10
2018-04-29T16:43:55.740Z,3.60
2018-04-29T16:44:56.359Z,3.40
2018-04-29T16:45:56.958Z,3.40
2018-04-29T16:46:57.604Z,3.70
2018-04-29T16:47:58.230Z,3.80
2018-04-29T16:48:58.847Z,3.90
2018-04-29T16:49:59.479Z,3.20
2018-04-29T16:51:00.074Z,3.60
2018-04-29T16:52:00.635Z,3.40
2018-04-29T16:53:01.259Z,3.50
2018-04-29T16:54:01.881Z,3.10
2018-04-29T16:55:02.479Z,3.60
2018-04-29T16:56:03.056Z,3.20
2018-04-29T16:57:03.652Z,3.30
2018-04-29T16:58:04.253Z,3.60
2018-04-29T16:59:07.850Z,3.30
2018-04-29T17:00:08.440Z,3.40
2018-04-29T17:01:09.058Z,3.60
2018-04-29T17:03:09.981Z,3.50
2018-04-29T17:04:10.598Z,3.30
2018-04-29T17:05:11.224Z,3.10
2018-04-29T17:06:11.832Z,3.30
2018-04-29T17:07:12.433Z,3.20
2018-04-29T17:08:13.001Z,3.30
2018-04-29T17:09:13.621Z,3.30
2018-04-29T17:11:14.533Z,3.60
2018-04-29T17:12:15.124Z,3.50
2018-04-29T17:13:15.783Z,3.10
2018-04-29T17:14:16.361Z,3.10
2018-04-29T17:15:16.949Z,3.40
2018-04-29T17:16:17.544Z,3.30
2018-04-29T17:17:18.137Z,3.00
2018-04-29T17:18:18.793Z,3.40
2018-04-29T17:19:19.372Z,3.10
2018-04-29T17:21:20.250Z,3.30
2018-04-29T17:22:20.821Z,3.30
2018-04-29T17:23:21.453Z,3.10
2018-04-29T17:24:22.066Z,3.30
2018-04-29T17:25:22.632Z,3.20
2018-04-29T17:26:23.211Z,3.30
2018-04-29T17:27:23.788Z,3.30
2018-04-29T17:28:24.384Z,3.90
2018-04-29T17:29:25.079Z,3.50
2018-04-29T17:30:25.681Z,3.10
2018-04-29T17:31:26.317Z,3.30
2018-04-29T17:32:26.896Z,3.30
2018-04-29T17:33:27.486Z,3.30
2018-04-29T17:34:28.083Z,3.20
2018-04-29T17:35:28.687Z,3.50
2018-04-29T17:36:29.248Z,2.90
2018-04-29T17:37:29.875Z,3.00
2018-04-29T17:38:30.498Z,3.00
2018-04-29T17:39:31.190Z,3.50
2018-04-29T17:40:31.798Z,3.40
2018-04-29T17:41:33.021Z,3.30
2018-04-29T17:42:33.612Z,3.30
2018-04-29T17:43:34.209Z,3.30
2018-04-29T17:44:34.856Z,3.50
2018-04-29T17:45:35.471Z,3.40
2018-04-29T17:46:36.048Z,3.30
2018-04-29T17:47:36.646Z,3.70
2018-04-29T17:49:37.595Z,3.40
2018-04-29T17:50:38.260Z,3.50
2018-04-29T17:51:38.850Z,3.20
2018-04-29T17:52:39.430Z,3.40
2018-04-29T17:53:40.018Z,3.40
2018-04-29T17:54:40.594Z,3.10
2018-04-29T17:56:41.478Z,3.20
2018-04-29T17:57:42.063Z,2.90
2018-04-29T17:59:42.919Z,3.20
2018-04-29T18:00:43.543Z,3.10
2018-04-29T18:01:44.133Z,3.10
2018-04-29T18:02:44.712Z,3.10
2018-04-29T18:03:45.324Z,3.60
2018-04-29T18:04:45.940Z,3.90
2018-04-29T18:05:46.512Z,3.30
2018-04-29T18:06:47.086Z,3.50
2018-04-29T18:07:47.749Z,3.00
2018-04-29T18:08:48.340Z,3.00
2018-04-29T18:10:49.193Z,4.30
2018-04-29T18:11:49.804Z,3.70
2018-04-29T18:12:50.396Z,5.20
2018-04-29T18:13:51.005Z,3.40
2018-04-29T18:14:51.580Z,3.10
2018-04-29T18:16:52.471Z,3.80
2018-04-29T18:17:53.036Z,3.50
2018-04-29T18:18:53.628Z,2.90
2018-04-29T18:19:54.198Z,2.90
2018-04-29T18:20:54.812Z,3.30
2018-04-29T18:21:55.451Z,3.50
2018-04-29T18:22:56.019Z,3.20
2018-04-29T18:23:56.648Z,3.10
2018-04-29T18:24:57.249Z,3.20
2018-04-29T18:25:57.862Z,3.00
2018-04-29T18:26:58.503Z,3.20
2018-04-29T18:27:59.068Z,3.20
2018-04-29T18:28:59.699Z,2.90
2018-04-29T18:30:00.835Z,3.00
2018-04-29T18:31:01.484Z,3.10
2018-04-29T18:32:02.088Z,3.40
2018-04-29T18:33:02.666Z,3.30
2018-04-29T18:34:03.263Z,3.10
2018-04-29T18:35:03.871Z,3.20
2018-04-29T18:36:05.205Z,3.30
2018-04-29T18:37:06.011Z,3.10
2018-04-29T18:38:06.616Z,3.10
2018-04-29T18:39:07.270Z,3.10
2018-04-29T18:40:07.869Z,3.30
2018-04-29T18:42:08.729Z,3.50
2018-04-29T18:43:09.297Z,3.40
2018-04-29T18:44:09.876Z,3.60
2018-04-29T18:45:10.445Z,2.90
2018-04-29T18:46:11.690Z,3.90
2018-04-29T18:47:12.303Z,3.40
2018-04-29T18:48:12.876Z,3.30
2018-04-29T18:49:13.513Z,3.40
2018-04-29T18:51:14.506Z,3.40
2018-04-29T18:52:15.009Z,3.20
2018-04-29T18:53:15.589Z,3.40
2018-04-29T18:54:16.268Z,3.50
2018-04-29T18:55:16.870Z,3.40
2018-04-29T18:56:17.469Z,3.30
2018-04-29T18:57:18.312Z,3.60
2018-04-29T18:58:18.898Z,3.20
2018-04-29T19:00:19.818Z,3.20
2018-04-29T19:01:23.655Z,3.30
2018-04-29T19:02:24.242Z,3.30
2018-04-29T19:03:24.966Z,3.30
2018-04-29T19:04:25.744Z,3.50
2018-04-29T19:05:27.652Z,3.40
2018-04-29T19:07:31.486Z,3.40
2018-04-29T19:08:32.204Z,3.40
2018-04-29T19:09:32.783Z,3.40
2018-04-29T19:10:43.816Z,3.10
2018-04-29T19:11:45.260Z,3.10
2018-04-29T19:12:45.866Z,3.00
2018-04-29T19:13:46.522Z,3.40
2018-04-29T19:14:47.091Z,3.50
2018-04-29T19:15:47.676Z,3.30
2018-04-29T19:16:48.264Z,3.60
2018-04-29T19:17:52.128Z,3.50
2018-04-29T19:18:52.723Z,3.50
2018-04-29T19:19:54.233Z,3.00
2018-04-29T19:20:54.839Z,3.30
2018-04-29T19:21:56.654Z,3.60
2018-04-29T19:23:57.758Z,3.60
2018-04-29T19:24:58.386Z,3.40
2018-04-29T19:25:58.968Z,3.30
2018-04-29T19:26:59.636Z,3.40
2018-04-29T19:28:00.220Z,3.40
2018-04-29T19:29:09.283Z,3.40
2018-04-29T19:30:12.660Z,3.60
2018-04-29T19:31:13.243Z,3.40
2018-04-29T19:32:13.884Z,3.50
